Time;durP1;ratioP1;P1;durP2;ratioP2;P2;SDS_P1;SDS_P2;PMS_P1;PMS_P2;Temp;Humidity;BMP_temperature;BMP_pressure;BME280_temperature;BME280_humidity;BME280_pressure;Samples;Min_cycle;Max_cycle;Signal;HPM_P1;HPM_P2
2022/12/18 00:01:32;;;;;;;51.50;29.57;;;-6.20;99.90;;;-141.84;82.09;18446.31;5073331;28;20286;-70
2022/12/18 00:04:08;;;;;;;53.37;31.07;;;-6.20;99.90;;;-141.84;82.08;18470.69;5073465;28;20185;-68
2022/12/18 00:06:36;;;;;;;56.10;31.97;;;-6.20;99.90;;;-141.84;81.99;18460.53;5054117;28;20276;-69
2022/12/18 00:09:04;;;;;;;51.77;30.37;;;-6.20;99.90;;;-141.84;82.18;18466.63;5053735;28;20236;-69
2022/12/18 00:11:33;;;;;;;52.60;30.60;;;-6.20;99.90;;;-141.84;82.20;18458.50;5053689;28;20227;-70
2022/12/18 00:14:01;;;;;;;49.07;30.23;;;-6.30;99.90;;;-141.84;82.38;18458.50;5053269;28;20239;-69
2022/12/18 00:16:32;;;;;;;52.47;31.03;;;-6.30;99.90;;;-141.84;82.53;18470.69;5053312;28;20304;-69
2022/12/18 00:19:02;;;;;;;53.13;32.07;;;-6.30;99.90;;;-141.84;82.42;18484.91;5053713;28;20186;-68
2022/12/18 00:21:33;;;;;;;53.60;30.63;;;-6.30;99.90;;;-141.84;82.09;18519.44;5053330;28;20217;-69
2022/12/18 00:24:01;;;;;;;50.30;29.63;;;-6.40;99.90;;;-141.84;82.03;18468.66;5053030;28;20225;-69
2022/12/18 00:26:32;;;;;;;51.93;29.30;;;-6.40;99.90;;;-141.84;82.23;18454.44;5053019;28;20225;-70
2022/12/18 00:29:03;;;;;;;48.37;30.33;;;-6.40;99.90;;;-141.84;82.26;18470.69;5052896;28;20735;-68
2022/12/18 00:31:33;;;;;;;52.13;29.93;;;-6.40;99.90;;;-141.84;81.74;18478.81;5053106;28;20241;-70
2022/12/18 00:34:03;;;;;;;49.13;29.93;;;-6.30;99.90;;;-141.84;81.80;18456.47;5053019;28;20243;-70
2022/12/18 00:36:34;;;;;;;49.40;30.33;;;-6.40;99.90;;;-141.84;81.82;18482.88;5072412;28;20667;-70
2022/12/18 00:39:05;;;;;;;51.60;29.17;;;-6.40;99.90;;;-141.84;81.90;18491.00;5072574;28;20568;-70
2022/12/18 00:44:20;;;;;;;49.63;29.33;;;-6.40;99.90;;;-141.84;81.62;18488.97;5072758;28;20719;-69
2022/12/18 00:46:49;;;;;;;49.30;30.57;;;-6.40;99.90;;;-141.84;81.64;18493.03;5073040;28;20710;-69
2022/12/18 00:49:20;;;;;;;47.73;29.07;;;-6.40;99.90;;;-141.84;81.40;18476.78;5072313;28;20200;-69
2022/12/18 00:51:49;;;;;;;50.73;29.40;;;-6.40;99.90;;;-141.84;81.34;18482.88;5073286;28;20196;-69
2022/12/18 00:54:18;;;;;;;45.83;28.37;;;-6.40;99.90;;;-141.84;81.50;18484.91;5072569;28;20232;-69
2022/12/18 00:56:46;;;;;;;49.23;28.13;;;-6.40;99.90;;;-141.84;81.16;18460.53;5072510;28;20237;-71
2022/12/18 00:59:17;;;;;;;47.57;28.17;;;-6.40;99.90;;;-141.84;80.97;18488.97;5072095;28;20267;-70
2022/12/18 01:01:46;;;;;;;49.93;28.60;;;-6.40;99.90;;;-141.84;80.92;18470.69;5087584;28;20221;-70
2022/12/18 01:04:15;;;;;;;46.03;27.50;;;-6.30;99.90;;;-141.84;80.67;18472.72;5091914;28;20205;-69
2022/12/18 01:06:45;;;;;;;44.77;27.87;;;-6.40;99.90;;;-141.84;80.61;18480.84;5072794;28;20662;-70
2022/12/18 01:09:13;;;;;;;46.57;27.57;;;-6.40;99.90;;;-141.84;80.67;18499.13;5072262;28;20640;-69
2022/12/18 01:11:41;;;;;;;45.40;26.67;;;-6.50;99.90;;;-141.84;80.85;18493.03;5072322;28;20232;-69
2022/12/18 01:14:10;;;;;;;48.30;27.90;;;-6.60;99.90;;;-141.84;80.64;18488.97;5072492;28;20243;-70
2022/12/18 01:16:38;;;;;;;48.90;26.97;;;-6.60;99.90;;;-141.84;79.93;18480.84;5072486;28;20281;-69
2022/12/18 01:19:06;;;;;;;45.73;27.40;;;-6.50;99.90;;;-141.84;79.13;18497.09;5071661;28;20205;-66
2022/12/18 01:21:35;;;;;;;44.23;26.80;;;-6.40;99.90;;;-141.84;79.17;18476.78;5072601;28;20210;-69
2022/12/18 01:24:06;;;;;;;45.33;26.73;;;-6.40;99.90;;;-141.84;79.56;18472.72;5071721;28;20254;-69
2022/12/18 01:26:34;;;;;;;45.77;25.43;;;-6.50;99.90;;;-141.84;80.01;18509.28;5071840;28;20228;-69
2022/12/18 01:29:03;;;;;;;48.07;25.70;;;-6.60;99.90;;;-141.84;80.04;18423.94;5071859;28;20228;-70
2022/12/18 01:31:34;;;;;;;41.40;24.83;;;-6.60;99.90;;;-141.84;80.04;18470.69;5072318;28;20228;-71
2022/12/18 01:34:03;;;;;;;43.47;26.10;;;-6.60;99.90;;;-141.84;80.09;18456.47;5071910;28;20265;-69
2022/12/18 01:36:34;;;;;;;44.40;26.43;;;-6.60;99.90;;;-141.84;80.19;18480.84;5071817;28;20217;-69
2022/12/18 01:39:09;;;;;;;45.03;25.63;;;-6.60;99.90;;;-141.84;80.05;18484.91;5071770;28;20604;-69
2022/12/18 01:44:59;;;;;;;43.83;25.23;;;-6.60;99.90;;;-141.84;79.22;18493.03;5071217;28;20718;-68
2022/12/18 01:47:35;;;;;;;44.40;25.50;;;-6.50;99.90;;;-141.84;78.92;18515.38;5059950;28;20239;-69
2022/12/18 01:50:13;;;;;;;43.00;24.50;;;-6.60;99.90;;;-141.84;79.02;18488.97;5071339;28;20239;-69
2022/12/18 01:52:45;;;;;;;40.47;24.57;;;-6.60;99.90;;;-141.84;78.88;18486.94;5071412;28;20230;-70
2022/12/18 01:55:20;;;;;;;45.13;24.67;;;-6.60;99.90;;;-141.84;78.57;18507.25;5071495;28;20364;-70
2022/12/18 01:57:50;;;;;;;40.20;24.40;;;-6.60;99.90;;;-141.84;78.84;18519.44;5072061;28;20620;-70
2022/12/18 02:00:22;;;;;;;43.37;25.30;;;-6.70;99.90;;;-141.84;78.99;18474.75;5070858;28;20239;-69
2022/12/18 02:02:50;;;;;;;41.87;23.97;;;-6.70;99.90;;;-141.84;78.94;18458.50;5071364;28;20342;-68
2022/12/18 02:05:25;;;;;;;42.60;24.93;;;-6.70;99.90;;;-141.84;79.42;18509.28;5070850;28;20228;-69
2022/12/18 02:08:09;;;;;;;44.20;25.13;;;-6.70;99.90;;;-141.84;79.43;18480.84;5071101;28;20695;-70
2022/12/18 02:10:49;;;;;;;39.77;22.93;;;-6.70;99.90;;;-141.84;79.48;18456.47;5070960;28;20707;-69
2022/12/18 02:13:26;;;;;;;43.53;25.57;;;-6.80;99.90;;;-141.84;79.75;18501.16;5070845;28;20546;-69
2022/12/18 02:16:06;;;;;;;42.30;24.17;;;-6.80;99.90;;;-141.84;79.90;18493.03;5071951;28;20189;-70
2022/12/18 02:18:41;;;;;;;44.07;24.80;;;-6.80;99.90;;;-141.84;80.20;18505.22;5071541;28;20259;-69
2022/12/18 02:21:26;;;;;;;41.53;23.90;;;-6.90;99.90;;;-141.84;80.14;18495.06;5070958;28;20703;-70
2022/12/18 02:24:12;;;;;;;39.63;23.23;;;-6.80;99.90;;;-141.84;79.89;18495.06;5071213;28;20227;-70
2022/12/18 02:26:49;;;;;;;39.30;23.17;;;-6.80;99.90;;;-141.84;79.45;18533.66;5071255;28;20747;-70
2022/12/18 02:29:27;;;;;;;40.40;24.03;;;-6.70;99.90;;;-141.84;78.99;18476.78;5070780;28;20231;-69
2022/12/18 02:32:03;;;;;;;38.83;24.03;;;-6.70;99.90;;;-141.84;78.41;18480.84;5070806;28;20724;-70
2022/12/18 02:34:36;;;;;;;42.00;24.50;;;-6.60;99.90;;;-141.84;78.57;18493.03;5070146;28;20286;-69
2022/12/18 02:37:10;;;;;;;39.40;23.17;;;-6.60;99.90;;;-141.84;78.98;18482.88;5071483;28;20185;-69
2022/12/18 02:39:44;;;;;;;38.10;23.43;;;-6.60;99.90;;;-141.84;79.10;18511.31;5071007;28;20289;-69
2022/12/18 02:42:14;;;;;;;41.03;23.03;;;-6.70;99.90;;;-141.84;79.63;18482.88;5071089;28;20225;-69
2022/12/18 02:44:47;;;;;;;37.53;22.70;;;-6.70;99.90;;;-141.84;80.08;18484.91;5070733;28;20224;-69
2022/12/18 02:47:19;;;;;;;35.03;22.87;;;-6.80;99.90;;;-141.84;80.17;18499.13;5070789;28;20229;-70
2022/12/18 02:50:03;;;;;;;37.13;22.40;;;-6.80;99.90;;;-141.84;80.56;18476.78;5070308;28;20229;-69
2022/12/18 02:52:41;;;;;;;38.80;22.27;;;-6.90;99.90;;;-141.84;80.59;18517.41;5070873;28;20225;-69
2022/12/18 02:55:27;;;;;;;39.10;22.07;;;-6.90;99.90;;;-141.84;80.74;18503.19;5070351;28;20554;-70
2022/12/18 02:58:06;;;;;;;33.93;21.87;;;-6.90;99.90;;;-141.84;80.75;18486.94;5071407;28;20193;-68
2022/12/18 03:00:42;;;;;;;36.43;21.17;;;-6.90;99.90;;;-141.84;80.27;18448.34;5070560;28;20223;-69
2022/12/18 03:03:19;;;;;;;35.80;21.57;;;-6.80;99.90;;;-141.84;80.29;18503.19;5070654;28;20314;-68
2022/12/18 03:05:57;;;;;;;35.40;21.87;;;-6.80;99.90;;;-141.84;80.54;18493.03;5070279;28;20578;-68
2022/12/18 03:08:29;;;;;;;32.97;21.53;;;-6.80;99.90;;;-141.84;80.55;18505.22;5070630;28;20294;-69
2022/12/18 03:11:03;;;;;;;36.30;21.00;;;-6.70;99.90;;;-141.84;80.14;18497.09;5070678;28;20243;-71
2022/12/18 03:13:40;;;;;;;35.63;21.60;;;-6.70;99.90;;;-141.84;79.79;18482.88;5070542;28;20849;-69
2022/12/18 03:16:13;;;;;;;34.03;20.80;;;-6.70;99.90;;;-141.84;79.68;18493.03;5070411;28;20212;-69
2022/12/18 03:18:49;;;;;;;37.13;22.27;;;-6.70;99.90;;;-141.84;79.84;18497.09;5070714;28;20200;-69
2022/12/18 03:21:23;;;;;;;37.30;22.43;;;-6.70;99.90;;;-141.84;79.33;18484.91;5071667;28;20227;-70
2022/12/18 03:23:54;;;;;;;37.47;21.60;;;-6.70;99.90;;;-141.84;79.35;18464.59;5074391;28;20277;-69
2022/12/18 03:26:26;;;;;;;32.27;20.60;;;-6.70;99.90;;;-141.84;79.56;18505.22;5074310;28;20235;-70
2022/12/18 03:29:05;;;;;;;36.40;22.13;;;-6.70;99.90;;;-141.84;79.71;18531.63;5075375;28;20696;-69
2022/12/18 03:31:38;;;;;;;30.57;20.27;;;-6.70;99.90;;;-141.84;79.47;18497.09;5076777;28;20357;-69
2022/12/18 03:34:15;;;;;;;36.50;21.73;;;-6.80;99.90;;;-141.84;79.70;18476.78;5076296;28;20243;-67
2022/12/18 03:36:43;;;;;;;33.27;20.13;;;-6.80;99.90;;;-141.84;80.09;18476.78;5065148;28;20209;-69
2022/12/18 03:39:11;;;;;;;37.03;21.07;;;-6.90;99.90;;;-141.84;80.09;18454.44;5075342;28;20231;-69
2022/12/18 03:41:48;;;;;;;32.73;20.53;;;-6.90;99.90;;;-141.84;80.03;18499.13;5075790;28;20231;-69
2022/12/18 03:44:28;;;;;;;32.67;19.87;;;-6.90;99.90;;;-141.84;80.08;18480.84;5076297;28;20227;-70
2022/12/18 03:47:07;;;;;;;31.33;20.00;;;-6.90;99.90;;;-141.84;80.00;18505.22;5074483;28;20228;-69
2022/12/18 03:49:43;;;;;;;32.83;20.13;;;-7.00;99.90;;;-141.84;79.89;18480.84;5073519;28;20231;-70
2022/12/18 03:52:22;;;;;;;32.57;20.63;;;-6.90;99.90;;;-141.84;80.19;18491.00;5073584;28;20253;-68
2022/12/18 03:54:52;;;;;;;34.50;20.33;;;-7.00;99.90;;;-141.84;79.91;18470.69;5074487;28;20219;-68
2022/12/18 03:57:26;;;;;;;30.73;17.80;;;-6.90;99.90;;;-141.84;79.69;18458.50;5073679;28;20270;-68
2022/12/18 04:00:02;;;;;;;33.77;19.53;;;-6.90;99.90;;;-141.84;80.12;18517.41;5073662;28;20242;-71
2022/12/18 04:02:34;;;;;;;34.23;19.97;;;-7.00;99.90;;;-141.84;79.73;18505.22;5073576;28;20230;-70
2022/12/18 04:05:07;;;;;;;33.27;19.47;;;-6.90;99.90;;;-141.84;79.76;18484.91;5073457;28;20252;-70
2022/12/18 04:07:37;;;;;;;32.30;19.03;;;-7.00;99.90;;;-141.84;80.32;18488.97;5073544;28;20682;-69
2022/12/18 04:10:09;;;;;;;34.70;19.97;;;-7.00;99.90;;;-141.84;80.08;18519.44;5074138;28;20212;-69
2022/12/18 04:12:39;;;;;;;33.60;20.07;;;-7.00;99.90;;;-141.84;79.93;18480.84;5073806;28;20211;-69
2022/12/18 04:15:10;;;;;;;33.57;19.93;;;-6.90;99.90;;;-141.84;79.97;18501.16;5073299;28;20221;-70
2022/12/18 04:17:39;;;;;;;32.37;19.67;;;-7.00;99.90;;;-141.84;79.91;18476.78;5073334;28;20238;-69
2022/12/18 04:20:09;;;;;;;27.87;17.67;;;-7.00;99.90;;;-141.84;79.72;18478.81;5073131;28;20236;-70
2022/12/18 04:22:37;;;;;;;30.73;19.13;;;-7.00;99.90;;;-141.84;79.85;18486.94;5073396;28;20905;-69
2022/12/18 04:25:06;;;;;;;30.87;18.70;;;-7.10;99.90;;;-141.84;80.08;18470.69;5073928;28;20204;-69
2022/12/18 04:27:35;;;;;;;29.63;18.10;;;-7.10;99.90;;;-141.84;80.03;18493.03;5073676;28;20684;-70
2022/12/18 04:30:04;;;;;;;29.83;17.63;;;-7.10;99.90;;;-141.84;79.82;18513.34;5073050;28;20638;-68
2022/12/18 04:32:35;;;;;;;26.53;18.00;;;-7.10;99.90;;;-141.84;79.89;18497.09;5072827;28;20232;-69
2022/12/18 04:35:04;;;;;;;26.50;17.10;;;-7.10;99.90;;;-141.84;79.78;18482.88;5072648;28;20229;-69
2022/12/18 04:37:32;;;;;;;28.00;17.60;;;-7.10;99.90;;;-141.84;80.05;18493.03;5073144;28;20686;-69
2022/12/18 04:40:00;;;;;;;28.03;17.70;;;-7.20;99.90;;;-141.84;79.80;18505.22;5073700;28;20204;-70
2022/12/18 04:42:28;;;;;;;25.73;16.33;;;-7.10;99.90;;;-141.84;79.86;18466.63;5072466;28;20228;-69
2022/12/18 04:44:56;;;;;;;26.53;16.87;;;-7.10;99.90;;;-141.84;79.91;18484.91;5072842;28;20232;-69
2022/12/18 04:47:24;;;;;;;28.37;17.23;;;-7.20;99.90;;;-141.84;79.65;18503.19;5072746;28;20232;-69
2022/12/18 04:49:53;;;;;;;26.10;15.80;;;-7.10;99.90;;;-141.84;79.36;18503.19;5072567;28;20253;-70
2022/12/18 04:52:22;;;;;;;27.10;16.23;;;-7.20;99.90;;;-141.84;79.15;18491.00;5072781;28;20208;-68
2022/12/18 04:54:52;;;;;;;24.57;15.33;;;-7.20;99.90;;;-141.84;79.57;18501.16;5073636;28;20188;-69
2022/12/18 04:57:20;;;;;;;25.83;16.07;;;-7.20;99.90;;;-141.84;79.61;18476.78;5072699;28;20276;-68
2022/12/18 04:59:49;;;;;;;26.60;16.17;;;-7.20;99.90;;;-141.84;79.42;18501.16;5072355;28;20255;-69
2022/12/18 05:02:17;;;;;;;23.63;15.70;;;-7.10;99.90;;;-141.84;78.91;18484.91;5071988;28;20230;-70
2022/12/18 05:04:45;;;;;;;22.27;14.70;;;-7.10;99.90;;;-141.84;78.96;18497.09;5072289;28;20278;-68
2022/12/18 05:07:15;;;;;;;24.47;15.47;;;-7.10;99.90;;;-141.84;78.41;18495.06;5072398;28;20227;-68
2022/12/18 05:09:43;;;;;;;23.57;15.23;;;-7.10;99.90;;;-141.84;78.06;18501.16;5073029;28;20197;-69
2022/12/18 05:12:12;;;;;;;27.60;15.80;;;-7.00;99.90;;;-141.84;78.16;18525.53;5071950;28;20314;-70
2022/12/18 05:14:40;;;;;;;22.73;15.63;;;-7.10;99.90;;;-141.84;77.93;18486.94;5072130;28;20785;-70
2022/12/18 05:17:08;;;;;;;22.83;15.07;;;-7.10;99.90;;;-141.84;77.50;18509.28;5072084;28;20305;-70
2022/12/18 05:19:40;;;;;;;24.07;14.40;;;-7.10;99.90;;;-141.84;77.50;18501.16;5071466;28;20305;-68
2022/12/18 05:22:11;;;;;;;22.67;15.07;;;-7.10;99.90;;;-141.84;77.32;18525.53;5071490;28;20694;-70
2022/12/18 05:24:40;;;;;;;24.50;15.60;;;-7.10;99.90;;;-141.84;77.42;18535.69;5072652;28;20227;-70
2022/12/18 05:27:08;;;;;;;22.77;14.70;;;-7.10;99.90;;;-141.84;77.17;18523.50;5071661;28;20232;-70
2022/12/18 05:29:36;;;;;;;19.77;13.83;;;-7.10;99.90;;;-141.84;76.63;18493.03;5071990;28;20232;-69
2022/12/18 05:32:05;;;;;;;23.47;14.60;;;-7.10;99.90;;;-141.84;77.34;18545.84;5071831;28;20351;-69
2022/12/18 05:34:33;;;;;;;23.17;14.50;;;-7.20;99.90;;;-141.84;77.44;18539.75;5071518;28;20236;-69
2022/12/18 05:37:01;;;;;;;23.53;14.57;;;-7.20;99.90;;;-141.84;77.31;18505.22;5072418;28;20223;-69
2022/12/18 05:39:29;;;;;;;22.67;14.33;;;-7.30;99.90;;;-141.84;77.30;18509.28;5071636;28;20234;-69
2022/12/18 05:41:59;;;;;;;24.70;13.70;;;-7.30;99.90;;;-141.84;77.86;18493.03;5071829;28;20228;-69
2022/12/18 05:44:27;;;;;;;22.77;14.00;;;-7.40;99.90;;;-141.84;77.85;18509.28;5071183;28;20295;-68
2022/12/18 05:46:55;;;;;;;21.90;14.00;;;-7.40;99.90;;;-141.84;77.69;18519.44;5071890;28;20231;-68
2022/12/18 05:49:24;;;;;;;22.00;14.10;;;-7.40;99.90;;;-141.84;78.15;18480.84;5071533;28;20188;-69
2022/12/18 05:51:52;;;;;;;21.67;13.93;;;-7.40;99.90;;;-141.84;78.11;18533.66;5072144;28;20205;-70
2022/12/18 05:54:20;;;;;;;26.13;14.67;;;-7.40;99.90;;;-141.84;78.48;18521.47;5071107;28;20232;-70
2022/12/18 05:56:48;;;;;;;23.17;13.77;;;-7.40;99.90;;;-141.84;78.52;18499.13;5071180;28;20254;-70
2022/12/18 05:59:17;;;;;;;20.17;13.43;;;-7.50;99.90;;;-141.84;78.97;18497.09;5071221;28;20231;-71
2022/12/18 06:01:46;;;;;;;20.53;13.70;;;-7.50;99.90;;;-141.84;79.06;18505.22;5071384;28;20289;-69
2022/12/18 06:04:14;;;;;;;18.70;13.30;;;-7.50;99.90;;;-141.84;79.05;18495.06;5071219;28;20246;-69
2022/12/18 06:06:42;;;;;;;20.37;12.70;;;-7.50;99.90;;;-141.84;79.29;18499.13;5072051;28;20203;-69
2022/12/18 06:09:11;;;;;;;21.33;12.97;;;-7.50;99.90;;;-141.84;79.34;18505.22;5071047;28;20233;-69
2022/12/18 06:11:40;;;;;;;21.77;13.47;;;-7.50;99.90;;;-141.84;79.35;18509.28;5071021;28;20290;-70
2022/12/18 06:14:10;;;;;;;19.60;12.77;;;-7.50;99.90;;;-141.84;79.40;18521.47;5071133;28;20710;-70
2022/12/18 06:16:40;;;;;;;21.77;13.40;;;-7.50;99.90;;;-141.84;79.09;18513.34;5070916;28;20790;-69
2022/12/18 06:19:08;;;;;;;24.50;14.10;;;-7.40;99.90;;;-141.84;79.08;18503.19;5070866;28;20209;-69
2022/12/18 06:21:36;;;;;;;19.43;13.33;;;-7.40;99.90;;;-141.84;79.03;18521.47;5071589;28;20205;-69
2022/12/18 06:24:05;;;;;;;18.97;13.10;;;-7.40;99.90;;;-141.84;79.05;18509.28;5070968;28;20235;-69
2022/12/18 06:26:34;;;;;;;23.67;13.37;;;-7.40;99.90;;;-141.84;78.99;18495.06;5071343;28;20229;-70
2022/12/18 06:29:02;;;;;;;18.13;12.63;;;-7.20;99.90;;;-141.84;78.63;18499.13;5071729;28;20722;-70
2022/12/18 06:31:30;;;;;;;18.20;13.37;;;-7.40;99.90;;;-141.84;78.20;18501.16;5073244;28;20235;-70
2022/12/18 06:33:59;;;;;;;17.43;12.63;;;-7.40;99.90;;;-141.84;77.93;18507.25;5070954;28;20752;-69
2022/12/18 06:36:31;;;;;;;20.80;13.50;;;-7.30;99.90;;;-141.84;78.02;18523.50;5070876;28;20238;-70
2022/12/18 06:39:00;;;;;;;18.33;12.50;;;-7.30;99.90;;;-141.84;77.61;18521.47;5070882;28;20235;-69
2022/12/18 06:41:28;;;;;;;21.93;13.37;;;-7.30;99.90;;;-141.84;77.58;18521.47;5070749;28;20227;-69
2022/12/18 06:43:56;;;;;;;21.47;12.40;;;-7.30;99.90;;;-141.84;78.00;18515.38;5071097;28;20234;-70
2022/12/18 06:46:27;;;;;;;20.93;13.47;;;-7.30;99.90;;;-141.84;78.04;18517.41;5071264;28;20230;-70
2022/12/18 06:48:55;;;;;;;21.23;12.83;;;-7.30;99.90;;;-141.84;77.92;18482.88;5071443;28;20204;-70
2022/12/18 06:51:26;;;;;;;18.37;12.70;;;-7.30;99.90;;;-141.84;77.46;18503.19;5071083;28;20227;-70
2022/12/18 06:53:54;;;;;;;21.93;13.27;;;-7.10;99.90;;;-141.84;77.21;18515.38;5070759;28;20254;-70
2022/12/18 06:56:22;;;;;;;19.43;12.90;;;-7.10;99.90;;;-141.84;77.54;18533.66;5072567;28;20229;-69
2022/12/18 06:58:51;;;;;;;21.90;13.87;;;-7.20;99.90;;;-141.84;78.01;18529.59;5075131;28;20227;-68
2022/12/18 07:01:19;;;;;;;18.33;12.37;;;-7.20;99.90;;;-141.84;77.99;18537.72;5074961;28;20646;-70
2022/12/18 07:03:48;;;;;;;17.63;12.33;;;-7.20;99.90;;;-141.84;78.23;18521.47;5074666;28;20212;-68
2022/12/18 07:06:19;;;;;;;18.53;11.93;;;-7.30;99.90;;;-141.84;78.62;18529.59;5074488;28;20220;-70
2022/12/18 07:08:49;;;;;;;21.03;12.17;;;-7.30;99.90;;;-141.84;78.49;18513.34;5074604;28;20227;-68
2022/12/18 07:11:19;;;;;;;17.33;12.57;;;-7.40;99.90;;;-141.84;78.86;18521.47;5074443;28;20413;-69
2022/12/18 07:13:48;;;;;;;20.53;13.17;;;-7.40;99.90;;;-141.84;78.99;18515.38;5074729;28;20231;-68
2022/12/18 07:16:19;;;;;;;18.63;12.87;;;-7.40;99.90;;;-141.84;79.23;18533.66;5074345;28;20207;-68
2022/12/18 07:18:53;;;;;;;18.57;12.70;;;-7.40;99.90;;;-141.84;79.45;18574.28;5074009;28;20191;-70
2022/12/18 07:21:23;;;;;;;18.13;12.73;;;-7.40;99.90;;;-141.84;79.51;18503.19;5073685;28;20683;-71
2022/12/18 07:23:53;;;;;;;22.13;13.47;;;-7.40;99.90;;;-141.84;79.22;18513.34;5074452;28;20261;-71
2022/12/18 07:26:22;;;;;;;18.33;12.60;;;-7.30;99.90;;;-141.84;79.14;18488.97;5073865;28;20282;-69
2022/12/18 07:28:51;;;;;;;21.70;14.07;;;-7.30;99.90;;;-141.84;78.96;18523.50;5074116;28;20262;-69
2022/12/18 07:31:22;;;;;;;22.23;13.90;;;-7.30;99.90;;;-141.84;78.83;18488.97;5074021;28;20200;-70
2022/12/18 07:33:52;;;;;;;19.37;13.10;;;-7.20;99.90;;;-141.84;77.49;18486.94;5074612;28;20257;-70
2022/12/18 07:36:23;;;;;;;20.97;13.73;;;-7.10;99.90;;;-141.84;77.32;18531.63;5073693;28;20224;-70
2022/12/18 07:38:53;;;;;;;20.47;12.70;;;-7.10;99.90;;;-141.84;77.42;18501.16;5074124;28;20235;-69
2022/12/18 07:41:21;;;;;;;23.00;12.53;;;-7.10;99.90;;;-141.84;77.16;18501.16;5073404;28;20231;-70
2022/12/18 07:43:50;;;;;;;19.37;13.00;;;-7.10;99.90;;;-141.84;76.59;18493.03;5074068;28;20293;-69
2022/12/18 07:46:18;;;;;;;18.03;12.17;;;-6.90;99.90;;;-141.84;76.28;18493.03;5073953;28;20202;-70
2022/12/18 07:48:46;;;;;;;21.33;13.03;;;-6.70;99.90;;;-141.84;76.46;18505.22;5074127;28;20545;-69
2022/12/18 07:51:18;;;;;;;23.37;13.87;;;-7.00;99.90;;;-141.84;76.35;18507.25;5073664;28;20239;-70
2022/12/18 07:53:47;;;;;;;20.17;12.90;;;-6.90;99.90;;;-141.84;76.07;18476.78;5073841;28;20232;-70
2022/12/18 07:56:21;;;;;;;21.50;14.10;;;-7.00;99.90;;;-141.84;76.23;18529.59;5073594;28;20306;-71
2022/12/18 07:58:59;;;;;;;21.47;13.20;;;-6.90;99.90;;;-141.84;75.53;18537.72;5073680;28;20251;-68
2022/12/18 08:01:27;;;;;;;18.70;13.27;;;-6.80;99.90;;;-141.84;75.47;18527.56;5073493;28;20228;-70
2022/12/18 08:03:58;;;;;;;19.93;13.67;;;-6.70;99.90;;;-141.84;75.70;18523.50;5074006;28;20215;-69
2022/12/18 08:06:26;;;;;;;23.17;13.63;;;-6.70;99.90;;;-141.84;75.22;18511.31;5072870;28;20232;-68
2022/12/18 08:08:57;;;;;;;18.47;12.13;;;-6.60;99.90;;;-141.84;74.95;18566.16;5073265;28;20250;-68
2022/12/18 08:11:29;;;;;;;20.40;12.93;;;-6.60;99.90;;;-141.84;75.36;18525.53;5073325;28;20221;-70
2022/12/18 08:13:58;;;;;;;19.93;13.27;;;-6.50;99.90;;;-141.84;75.89;18531.63;5073363;28;20709;-69
2022/12/18 08:16:27;;;;;;;19.37;13.23;;;-6.50;99.90;;;-141.84;75.94;18519.44;5072888;28;20234;-69
2022/12/18 08:18:55;;;;;;;21.43;14.10;;;-6.50;99.90;;;-141.84;75.40;18529.59;5073486;28;20224;-69
2022/12/18 08:21:27;;;;;;;22.33;14.87;;;-6.40;99.90;;;-141.84;74.68;18547.88;5072749;28;20246;-70
2022/12/18 08:23:58;;;;;;;19.30;14.33;;;-6.30;99.90;;;-141.84;73.78;18517.41;5072957;28;20240;-70
2022/12/18 08:26:31;;;;;;;24.97;13.47;;;-6.20;99.90;;;-141.84;73.75;18527.56;5073024;28;20228;-70
2022/12/18 08:29:01;;;;;;;21.00;13.07;;;-6.10;99.90;;;-141.84;73.82;18556.00;5072753;28;20235;-70
2022/12/18 08:31:31;;;;;;;19.33;13.53;;;-6.10;99.90;;;-141.84;73.94;18541.78;5073238;28;20229;-70
2022/12/18 08:33:59;;;;;;;17.87;13.23;;;-6.10;99.90;;;-141.84;73.92;18525.53;5073333;28;20567;-70
2022/12/18 08:36:27;;;;;;;20.63;13.07;;;-6.10;99.90;;;-141.84;73.56;18529.59;5072733;28;20221;-69
2022/12/18 08:38:57;;;;;;;19.23;12.67;;;-6.10;99.90;;;-141.84;73.85;18523.50;5072747;28;20243;-69
2022/12/18 08:41:26;;;;;;;17.50;12.43;;;-6.00;99.90;;;-141.84;74.20;18543.81;5072502;28;20724;-71
2022/12/18 08:46:44;;;;;;;18.53;11.80;;;-6.00;99.90;;;-141.84;73.52;18529.59;5072772;28;20311;-70
2022/12/18 08:49:13;;;;;;;17.03;12.43;;;-5.90;99.90;;;-141.84;73.28;18527.56;5072640;28;20566;-69
2022/12/18 08:51:41;;;;;;;18.83;12.73;;;-5.80;99.90;;;-141.84;73.13;18523.50;5073219;28;20206;-69
2022/12/18 08:54:14;;;;;;;16.03;12.27;;;-5.70;99.90;;;-141.84;72.50;18537.72;5072517;28;20239;-69
2022/12/18 08:56:43;;;;;;;17.67;11.87;;;-5.60;99.90;;;-141.84;72.44;18568.19;5072629;28;20708;-69
2022/12/18 08:59:12;;;;;;;16.80;11.73;;;-5.50;99.90;;;-141.84;71.62;18547.88;5070667;28;20237;-69
2022/12/18 09:01:48;;;;;;;16.90;11.33;;;-5.30;99.90;;;-141.84;70.67;18541.78;5062500;28;20320;-70
2022/12/18 09:04:16;;;;;;;17.10;11.40;;;-5.20;99.90;;;-141.84;70.41;18572.25;5056599;28;20239;-69
2022/12/18 09:06:45;;;;;;;14.97;10.97;;;-5.30;99.90;;;-141.84;71.05;18523.50;5071223;28;20214;-70
2022/12/18 09:09:13;;;;;;;17.17;11.40;;;-5.20;99.90;;;-141.84;70.34;18582.44;5061015;28;20301;-70
2022/12/18 09:11:41;;;;;;;16.93;11.27;;;-5.10;99.90;;;-141.84;70.34;18529.59;5058681;28;20241;-71
2022/12/18 09:14:12;;;;;;;18.03;11.50;;;-5.20;99.90;;;-141.84;71.01;18547.88;5059621;28;20600;-68
2022/12/18 09:16:40;;;;;;;16.73;11.37;;;-5.20;99.90;;;-141.84;71.47;18541.78;5053287;28;20237;-71
2022/12/18 09:19:10;;;;;;;17.67;11.33;;;-5.10;99.90;;;-141.84;70.38;18562.09;5051851;28;20234;-71
2022/12/18 09:21:39;;;;;;;15.73;12.10;;;-4.90;99.90;;;-141.84;69.71;18533.66;5056605;28;20681;-71
2022/12/18 09:24:16;;;;;;;20.10;12.10;;;-4.80;99.90;;;-141.84;69.91;18568.19;5073766;28;20216;-71
2022/12/18 09:26:45;;;;;;;15.83;11.13;;;-4.70;99.90;;;-141.84;69.80;18562.09;5073971;28;20239;-71
2022/12/18 09:29:16;;;;;;;17.57;11.57;;;-4.70;99.90;;;-141.84;69.08;18521.47;5073982;28;20230;-70
2022/12/18 09:31:46;;;;;;;17.87;11.67;;;-4.60;99.90;;;-141.84;69.34;18558.03;5074437;28;20601;-69
2022/12/18 09:34:14;;;;;;;18.23;12.20;;;-4.60;99.90;;;-141.84;69.55;18582.44;5078321;28;20217;-70
2022/12/18 09:36:43;;;;;;;16.10;12.37;;;-4.60;99.90;;;-141.84;69.76;18570.22;5092799;28;20209;-71
2022/12/18 09:39:11;;;;;;;19.77;12.73;;;-4.60;99.90;;;-141.84;69.08;18570.22;5090647;28;20224;-69
2022/12/18 09:41:47;;;;;;;16.27;11.70;;;-4.60;99.90;;;-141.84;69.17;18580.41;5091466;28;20235;-70
2022/12/18 09:44:24;;;;;;;19.20;13.00;;;-4.60;99.90;;;-141.84;69.60;18576.31;5089121;28;20274;-68
2022/12/18 09:47:04;;;;;;;17.63;12.23;;;-4.60;99.90;;;-141.84;70.12;18529.59;5071593;28;20226;-70
2022/12/18 09:49:38;;;;;;;16.50;11.33;;;-4.50;99.90;;;-141.84;69.12;18545.84;5071170;28;20221;-70
2022/12/18 09:52:15;;;;;;;15.10;10.87;;;-4.60;99.90;;;-141.84;68.47;18584.47;5070932;28;20208;-67
2022/12/18 09:54:48;;;;;;;17.23;10.90;;;-4.60;99.90;;;-141.84;68.71;18566.16;5071427;28;20198;-74
2022/12/18 09:57:24;;;;;;;13.73;10.70;;;-4.50;99.90;;;-141.84;68.68;18574.28;5071078;28;20234;-69
2022/12/18 10:00:02;;;;;;;14.47;10.53;;;-4.50;99.90;;;-141.84;68.50;18580.41;5070274;28;20225;-72
2022/12/18 10:02:32;;;;;;;13.40;10.50;;;-4.50;99.90;;;-141.84;68.68;18574.28;5050927;28;20234;-70
2022/12/18 10:05:11;;;;;;;16.33;11.10;;;-4.40;99.90;;;-141.84;68.54;18586.50;5064221;28;20232;-70
2022/12/18 10:08:00;;;;;;;14.07;10.53;;;-4.40;99.90;;;-141.84;69.17;18568.19;5091017;28;20239;-70
2022/12/18 10:10:39;;;;;;;15.07;11.33;;;-4.30;99.90;;;-141.84;69.36;18588.53;5091296;28;20224;-70
2022/12/18 10:13:22;;;;;;;15.63;10.60;;;-4.30;99.90;;;-141.84;69.41;18574.28;5075733;28;20188;-69
2022/12/18 10:16:14;;;;;;;17.97;11.57;;;-4.20;99.90;;;-141.84;69.08;18566.16;5071246;28;20246;-68
2022/12/18 10:19:05;;;;;;;15.33;10.90;;;-4.10;99.90;;;-141.84;67.95;18576.31;5070943;28;20301;-70